sensor_id;sensor_type;location;lat;lon;timestamp;pressure;altitude;pressure_sealevel;temperature;humidity
23164;BME280;31429;42.674;23.350;2023-04-26T00:00:28;93831.09;;;9.01;100.00
23164;BME280;31429;42.674;23.350;2023-04-26T00:01:29;93832.09;;;8.99;100.00
23164;BME280;31429;42.674;23.350;2023-04-26T00:02:31;93835.47;;;8.99;100.00
23164;BME280;31429;42.674;23.350;2023-04-26T00:03:32;93832.59;;;9.05;100.00
23164;BME280;31429;42.674;23.350;2023-04-26T00:04:32;93826.56;;;9.08;100.00
23164;BME280;31429;42.674;23.350;2023-04-26T00:05:34;93824.75;;;9.10;100.00
23164;BME280;31429;42.674;23.350;2023-04-26T00:06:36;93832.16;;;9.14;100.00
23164;BME280;31429;42.674;23.350;2023-04-26T00:07:37;93822.81;;;9.15;100.00
23164;BME280;31429;42.674;23.350;2023-04-26T00:08:38;93823.63;;;9.15;100.00
23164;BME280;31429;42.674;23.350;2023-04-26T00:09:38;93824.53;;;9.14;100.00
23164;BME280;31429;42.674;23.350;2023-04-26T00:10:42;93820.47;;;9.10;100.00
23164;BME280;31429;42.674;23.350;2023-04-26T00:11:43;93821.38;;;9.09;100.00
23164;BME280;31429;42.674;23.350;2023-04-26T00:12:44;93820.63;;;9.07;100.00
23164;BME280;31429;42.674;23.350;2023-04-26T00:13:44;93811.31;;;9.06;100.00
23164;BME280;31429;42.674;23.350;2023-04-26T00:14:45;93815.59;;;9.06;100.00
23164;BME280;31429;42.674;23.350;2023-04-26T00:15:45;93815.66;;;9.04;100.00
23164;BME280;31429;42.674;23.350;2023-04-26T00:16:46;93806.50;;;9.00;100.00
23164;BME280;31429;42.674;23.350;2023-04-26T00:17:47;93804.66;;;9.04;100.00
23164;BME280;31429;42.674;23.350;2023-04-26T00:18:47;93802.84;;;9.06;100.00
23164;BME280;31429;42.674;23.350;2023-04-26T00:19:48;93805.53;;;9.03;100.00
23164;BME280;31429;42.674;23.350;2023-04-26T00:20:49;93806.19;;;8.89;100.00
23164;BME280;31429;42.674;23.350;2023-04-26T00:21:49;93800.97;;;8.74;100.00
23164;BME280;31429;42.674;23.350;2023-04-26T00:22:50;93805.44;;;8.68;100.00
23164;BME280;31429;42.674;23.350;2023-04-26T00:23:51;93804.13;;;8.60;100.00
23164;BME280;31429;42.674;23.350;2023-04-26T00:24:51;93804.44;;;8.54;100.00
23164;BME280;31429;42.674;23.350;2023-04-26T00:25:53;93810.56;;;8.50;100.00
23164;BME280;31429;42.674;23.350;2023-04-26T00:26:56;93807.16;;;8.49;100.00
23164;BME280;31429;42.674;23.350;2023-04-26T00:27:56;93807.25;;;8.48;100.00
23164;BME280;31429;42.674;23.350;2023-04-26T00:28:57;93809.94;;;8.45;100.00
23164;BME280;31429;42.674;23.350;2023-04-26T00:29:57;93807.56;;;8.40;100.00
23164;BME280;31429;42.674;23.350;2023-04-26T00:30:58;93810.44;;;8.34;100.00
23164;BME280;31429;42.674;23.350;2023-04-26T00:31:59;93804.69;;;8.29;100.00
23164;BME280;31429;42.674;23.350;2023-04-26T00:32:59;93803.22;;;8.24;100.00
23164;BME280;31429;42.674;23.350;2023-04-26T00:34:00;93809.34;;;8.20;100.00
23164;BME280;31429;42.674;23.350;2023-04-26T00:35:02;93807.94;;;8.13;100.00
23164;BME280;31429;42.674;23.350;2023-04-26T00:36:03;93797.88;;;8.09;100.00
23164;BME280;31429;42.674;23.350;2023-04-26T00:37:04;93801.97;;;8.14;100.00
23164;BME280;31429;42.674;23.350;2023-04-26T00:38:05;93798.19;;;8.22;100.00
23164;BME280;31429;42.674;23.350;2023-04-26T00:39:05;93788.31;;;8.35;100.00
23164;BME280;31429;42.674;23.350;2023-04-26T00:40:07;93793.91;;;8.43;100.00
23164;BME280;31429;42.674;23.350;2023-04-26T00:41:09;93790.53;;;8.42;100.00
23164;BME280;31429;42.674;23.350;2023-04-26T00:42:10;93791.41;;;8.41;100.00
23164;BME280;31429;42.674;23.350;2023-04-26T00:43:11;93792.84;;;8.47;100.00
23164;BME280;31429;42.674;23.350;2023-04-26T00:44:11;93793.75;;;8.46;100.00
23164;BME280;31429;42.674;23.350;2023-04-26T00:45:12;93790.88;;;8.53;100.00
23164;BME280;31429;42.674;23.350;2023-04-26T00:46:13;93789.75;;;8.59;100.00
23164;BME280;31429;42.674;23.350;2023-04-26T00:47:14;93787.81;;;8.64;100.00
23164;BME280;31429;42.674;23.350;2023-04-26T00:48:15;93791.91;;;8.68;100.00
23164;BME280;31429;42.674;23.350;2023-04-26T00:49:16;93787.00;;;8.63;100.00
23164;BME280;31429;42.674;23.350;2023-04-26T00:50:18;93789.75;;;8.59;100.00
23164;BME280;31429;42.674;23.350;2023-04-26T00:51:19;93789.22;;;8.52;100.00
23164;BME280;31429;42.674;23.350;2023-04-26T00:52:20;93791.00;;;8.32;100.00
23164;BME280;31429;42.674;23.350;2023-04-26T00:53:22;93795.66;;;8.22;100.00
23164;BME280;31429;42.674;23.350;2023-04-26T00:54:23;93788.50;;;8.12;100.00
23164;BME280;31429;42.674;23.350;2023-04-26T00:55:25;93797.84;;;8.11;100.00
23164;BME280;31429;42.674;23.350;2023-04-26T00:56:28;93797.38;;;8.22;100.00
23164;BME280;31429;42.674;23.350;2023-04-26T00:57:30;93797.69;;;8.34;100.00
23164;BME280;31429;42.674;23.350;2023-04-26T00:58:31;93794.22;;;8.35;100.00
23164;BME280;31429;42.674;23.350;2023-04-26T00:59:32;93797.97;;;8.28;100.00
23164;BME280;31429;42.674;23.350;2023-04-26T01:00:34;93795.09;;;8.16;100.00
23164;BME280;31429;42.674;23.350;2023-04-26T01:01:35;93795.59;;;8.03;100.00
23164;BME280;31429;42.674;23.350;2023-04-26T01:02:35;93797.41;;;8.01;100.00
23164;BME280;31429;42.674;23.350;2023-04-26T01:03:36;93793.63;;;8.10;100.00
23164;BME280;31429;42.674;23.350;2023-04-26T01:04:37;93798.13;;;8.24;100.00
23164;BME280;31429;42.674;23.350;2023-04-26T01:05:41;93792.88;;;8.28;100.00
23164;BME280;31429;42.674;23.350;2023-04-26T01:06:41;93799.22;;;8.18;100.00
23164;BME280;31429;42.674;23.350;2023-04-26T01:07:42;93797.47;;;8.00;100.00
23164;BME280;31429;42.674;23.350;2023-04-26T01:08:43;93804.69;;;7.90;100.00
23164;BME280;31429;42.674;23.350;2023-04-26T01:09:44;93805.97;;;7.80;100.00
23164;BME280;31429;42.674;23.350;2023-04-26T01:10:45;93808.81;;;7.73;100.00
23164;BME280;31429;42.674;23.350;2023-04-26T01:11:48;93801.41;;;7.68;100.00
23164;BME280;31429;42.674;23.350;2023-04-26T01:12:49;93810.81;;;7.66;100.00
23164;BME280;31429;42.674;23.350;2023-04-26T01:13:50;93805.72;;;7.66;100.00
23164;BME280;31429;42.674;23.350;2023-04-26T01:14:51;93804.13;;;7.64;100.00
23164;BME280;31429;42.674;23.350;2023-04-26T01:15:53;93804.25;;;7.61;100.00
23164;BME280;31429;42.674;23.350;2023-04-26T01:16:56;93807.06;;;7.55;100.00
23164;BME280;31429;42.674;23.350;2023-04-26T01:17:56;93807.94;;;7.53;100.00
23164;BME280;31429;42.674;23.350;2023-04-26T01:18:57;93809.16;;;7.45;100.00
23164;BME280;31429;42.674;23.350;2023-04-26T01:19:58;93799.84;;;7.44;100.00
23164;BME280;31429;42.674;23.350;2023-04-26T01:20:59;93800.44;;;7.50;100.00
23164;BME280;31429;42.674;23.350;2023-04-26T01:21:59;93800.31;;;7.53;100.00
23164;BME280;31429;42.674;23.350;2023-04-26T01:23:01;93804.91;;;7.66;100.00
23164;BME280;31429;42.674;23.350;2023-04-26T01:24:02;93789.31;;;7.73;100.00
23164;BME280;31429;42.674;23.350;2023-04-26T01:25:03;93789.31;;;7.73;100.00
23164;BME280;31429;42.674;23.350;2023-04-26T01:26:07;93787.34;;;7.80;100.00
23164;BME280;31429;42.674;23.350;2023-04-26T01:27:07;93777.06;;;7.81;100.00
23164;BME280;31429;42.674;23.350;2023-04-26T01:28:08;93781.66;;;7.93;100.00
23164;BME280;31429;42.674;23.350;2023-04-26T01:29:13;93777.81;;;7.83;100.00
23164;BME280;31429;42.674;23.350;2023-04-26T01:30:14;93784.41;;;7.69;100.00
23164;BME280;31429;42.674;23.350;2023-04-26T01:31:15;93777.03;;;7.63;100.00
23164;BME280;31429;42.674;23.350;2023-04-26T01:32:16;93771.50;;;7.73;100.00
23164;BME280;31429;42.674;23.350;2023-04-26T01:33:16;93777.78;;;7.65;100.00
23164;BME280;31429;42.674;23.350;2023-04-26T01:34:17;93784.19;;;7.55;100.00
23164;BME280;31429;42.674;23.350;2023-04-26T01:35:18;93785.88;;;7.54;100.00
23164;BME280;31429;42.674;23.350;2023-04-26T01:36:18;93783.59;;;7.48;100.00
23164;BME280;31429;42.674;23.350;2023-04-26T01:37:19;93791.44;;;7.43;100.00
23164;BME280;31429;42.674;23.350;2023-04-26T01:38:21;93786.59;;;7.37;100.00
23164;BME280;31429;42.674;23.350;2023-04-26T01:39:22;93785.16;;;7.30;100.00
23164;BME280;31429;42.674;23.350;2023-04-26T01:40:22;93792.22;;;7.24;100.00
23164;BME280;31429;42.674;23.350;2023-04-26T01:41:23;93786.44;;;7.20;100.00
23164;BME280;31429;42.674;23.350;2023-04-26T01:42:24;93787.28;;;7.21;100.00
23164;BME280;31429;42.674;23.350;2023-04-26T01:43:24;93789.03;;;7.19;100.00
23164;BME280;31429;42.674;23.350;2023-04-26T01:44:25;93784.84;;;7.18;100.00
23164;BME280;31429;42.674;23.350;2023-04-26T01:45:26;93787.19;;;7.22;100.00
23164;BME280;31429;42.674;23.350;2023-04-26T01:46:27;93789.66;;;7.24;100.00
23164;BME280;31429;42.674;23.350;2023-04-26T01:47:27;93787.91;;;7.26;100.00
23164;BME280;31429;42.674;23.350;2023-04-26T01:48:28;93798.59;;;7.34;100.00
23164;BME280;31429;42.674;23.350;2023-04-26T01:49:28;93801.00;;;7.37;100.00
23164;BME280;31429;42.674;23.350;2023-04-26T01:50:29;93805.34;;;7.35;100.00
23164;BME280;31429;42.674;23.350;2023-04-26T01:51:30;93804.44;;;7.36;100.00
23164;BME280;31429;42.674;23.350;2023-04-26T01:52:31;93803.84;;;7.29;100.00
23164;BME280;31429;42.674;23.350;2023-04-26T01:53:33;93796.22;;;7.29;100.00
23164;BME280;31429;42.674;23.350;2023-04-26T01:54:34;93800.53;;;7.27;100.00
23164;BME280;31429;42.674;23.350;2023-04-26T01:55:35;93788.59;;;7.29;100.00
23164;BME280;31429;42.674;23.350;2023-04-26T01:56:36;93787.78;;;7.29;100.00
23164;BME280;31429;42.674;23.350;2023-04-26T01:57:37;93792.19;;;7.45;100.00
23164;BME280;31429;42.674;23.350;2023-04-26T01:58:37;93794.59;;;7.48;100.00
23164;BME280;31429;42.674;23.350;2023-04-26T01:59:38;93787.47;;;7.57;100.00
23164;BME280;31429;42.674;23.350;2023-04-26T02:00:39;93789.03;;;7.79;100.00
23164;BME280;31429;42.674;23.350;2023-04-26T02:01:40;93787.69;;;7.91;100.00
23164;BME280;31429;42.674;23.350;2023-04-26T02:02:41;93794.56;;;7.89;100.00
23164;BME280;31429;42.674;23.350;2023-04-26T02:03:41;93789.66;;;7.84;100.00
23164;BME280;31429;42.674;23.350;2023-04-26T02:04:42;93784.78;;;7.80;100.00
23164;BME280;31429;42.674;23.350;2023-04-26T02:05:43;93786.16;;;7.87;100.00
23164;BME280;31429;42.674;23.350;2023-04-26T02:06:43;93778.34;;;7.91;100.00
23164;BME280;31429;42.674;23.350;2023-04-26T02:07:44;93778.34;;;7.91;100.00
23164;BME280;31429;42.674;23.350;2023-04-26T02:08:46;93778.34;;;7.91;100.00
23164;BME280;31429;42.674;23.350;2023-04-26T02:09:47;93781.44;;;7.98;100.00
23164;BME280;31429;42.674;23.350;2023-04-26T02:10:47;93783.31;;;7.94;100.00
23164;BME280;31429;42.674;23.350;2023-04-26T02:11:48;93778.09;;;7.97;100.00
23164;BME280;31429;42.674;23.350;2023-04-26T02:12:48;93778.84;;;7.99;100.00
23164;BME280;31429;42.674;23.350;2023-04-26T02:13:49;93780.38;;;7.83;100.00
23164;BME280;31429;42.674;23.350;2023-04-26T02:14:50;93785.44;;;7.65;100.00
23164;BME280;31429;42.674;23.350;2023-04-26T02:15:50;93789.31;;;7.53;100.00
23164;BME280;31429;42.674;23.350;2023-04-26T02:16:51;93776.84;;;7.47;100.00
23164;BME280;31429;42.674;23.350;2023-04-26T02:17:52;93780.47;;;7.41;100.00
23164;BME280;31429;42.674;23.350;2023-04-26T02:18:54;93774.69;;;7.38;100.00
23164;BME280;31429;42.674;23.350;2023-04-26T02:19:55;93774.00;;;7.34;100.00
23164;BME280;31429;42.674;23.350;2023-04-26T02:20:56;93777.41;;;7.33;100.00
23164;BME280;31429;42.674;23.350;2023-04-26T02:21:57;93770.66;;;7.32;100.00
23164;BME280;31429;42.674;23.350;2023-04-26T02:22:57;93774.81;;;7.35;100.00
23164;BME280;31429;42.674;23.350;2023-04-26T02:23:59;93765.66;;;7.31;100.00
23164;BME280;31429;42.674;23.350;2023-04-26T02:25:00;93769.16;;;7.28;100.00
23164;BME280;31429;42.674;23.350;2023-04-26T02:26:01;93768.41;;;7.26;100.00
23164;BME280;31429;42.674;23.350;2023-04-26T02:27:02;93765.88;;;7.26;100.00
23164;BME280;31429;42.674;23.350;2023-04-26T02:28:04;93776.16;;;7.23;100.00
23164;BME280;31429;42.674;23.350;2023-04-26T02:29:05;93776.28;;;7.20;100.00
23164;BME280;31429;42.674;23.350;2023-04-26T02:30:07;93771.88;;;7.24;100.00
23164;BME280;31429;42.674;23.350;2023-04-26T02:31:08;93775.00;;;7.30;100.00
23164;BME280;31429;42.674;23.350;2023-04-26T02:32:09;93774.88;;;7.33;100.00
23164;BME280;31429;42.674;23.350;2023-04-26T02:33:10;93764.25;;;7.44;100.00
23164;BME280;31429;42.674;23.350;2023-04-26T02:34:11;93770.75;;;7.51;100.00
23164;BME280;31429;42.674;23.350;2023-04-26T02:35:11;93768.63;;;7.61;100.00
23164;BME280;31429;42.674;23.350;2023-04-26T02:36:12;93771.00;;;7.65;100.00
23164;BME280;31429;42.674;23.350;2023-04-26T02:37:13;93775.97;;;7.68;100.00
23164;BME280;31429;42.674;23.350;2023-04-26T02:38:13;93778.63;;;7.65;100.00
23164;BME280;31429;42.674;23.350;2023-04-26T02:39:16;93778.00;;;7.60;100.00
23164;BME280;31429;42.674;23.350;2023-04-26T02:40:17;93775.63;;;7.56;100.00
23164;BME280;31429;42.674;23.350;2023-04-26T02:41:18;93775.63;;;7.56;100.00
23164;BME280;31429;42.674;23.350;2023-04-26T02:42:18;93782.31;;;7.58;100.00
23164;BME280;31429;42.674;23.350;2023-04-26T02:43:19;93780.13;;;7.69;100.00
23164;BME280;31429;42.674;23.350;2023-04-26T02:44:20;93778.63;;;7.85;100.00
23164;BME280;31429;42.674;23.350;2023-04-26T02:45:20;93773.53;;;8.04;100.00
23164;BME280;31429;42.674;23.350;2023-04-26T02:46:21;93774.09;;;8.10;100.00
23164;BME280;31429;42.674;23.350;2023-04-26T02:47:21;93767.03;;;8.17;100.00
23164;BME280;31429;42.674;23.350;2023-04-26T02:48:22;93772.66;;;8.24;100.00
23164;BME280;31429;42.674;23.350;2023-04-26T02:49:23;93770.84;;;8.27;100.00
23164;BME280;31429;42.674;23.350;2023-04-26T02:50:23;93766.81;;;8.22;100.00
23164;BME280;31429;42.674;23.350;2023-04-26T02:51:24;93761.50;;;8.26;100.00
23164;BME280;31429;42.674;23.350;2023-04-26T02:52:26;93758.44;;;8.20;100.00
23164;BME280;31429;42.674;23.350;2023-04-26T02:53:26;93762.47;;;8.05;100.00
23164;BME280;31429;42.674;23.350;2023-04-26T02:54:28;93764.31;;;8.01;100.00
23164;BME280;31429;42.674;23.350;2023-04-26T02:55:29;93762.75;;;7.99;100.00
23164;BME280;31429;42.674;23.350;2023-04-26T02:56:30;93758.09;;;8.08;100.00
23164;BME280;31429;42.674;23.350;2023-04-26T02:57:31;93754.97;;;8.21;100.00
23164;BME280;31429;42.674;23.350;2023-04-26T02:58:31;93754.16;;;8.20;100.00
23164;BME280;31429;42.674;23.350;2023-04-26T02:59:32;93750.56;;;8.24;100.00
23164;BME280;31429;42.674;23.350;2023-04-26T03:00:33;93755.47;;;8.29;100.00
23164;BME280;31429;42.674;23.350;2023-04-26T03:01:34;93753.72;;;8.31;100.00
23164;BME280;31429;42.674;23.350;2023-04-26T03:02:34;93755.09;;;8.18;100.00
23164;BME280;31429;42.674;23.350;2023-04-26T03:03:35;93759.00;;;8.06;100.00
23164;BME280;31429;42.674;23.350;2023-04-26T03:04:36;93758.47;;;7.99;100.00
23164;BME280;31429;42.674;23.350;2023-04-26T03:05:37;93765.19;;;8.00;100.00
23164;BME280;31429;42.674;23.350;2023-04-26T03:06:38;93763.63;;;7.98;100.00
23164;BME280;31429;42.674;23.350;2023-04-26T03:07:38;93761.41;;;7.90;100.00
23164;BME280;31429;42.674;23.350;2023-04-26T03:08:39;93771.03;;;7.84;100.00
23164;BME280;31429;42.674;23.350;2023-04-26T03:09:41;93763.59;;;7.79;100.00
23164;BME280;31429;42.674;23.350;2023-04-26T03:10:43;93773.78;;;7.79;100.00
23164;BME280;31429;42.674;23.350;2023-04-26T03:11:44;93766.19;;;7.78;100.00
23164;BME280;31429;42.674;23.350;2023-04-26T03:12:45;93762.78;;;7.79;100.00
23164;BME280;31429;42.674;23.350;2023-04-26T03:13:45;93760.22;;;7.79;100.00
23164;BME280;31429;42.674;23.350;2023-04-26T03:14:46;93762.72;;;7.80;100.00
23164;BME280;31429;42.674;23.350;2023-04-26T03:15:46;93771.03;;;7.84;100.00
23164;BME280;31429;42.674;23.350;2023-04-26T03:16:48;93768.84;;;7.95;100.00
23164;BME280;31429;42.674;23.350;2023-04-26T03:17:48;93757.03;;;8.13;100.00
23164;BME280;31429;42.674;23.350;2023-04-26T03:18:49;93753.88;;;8.26;100.00
23164;BME280;31429;42.674;23.350;2023-04-26T03:19:50;93750.06;;;8.36;100.00
23164;BME280;31429;42.674;23.350;2023-04-26T03:20:51;93748.06;;;8.43;100.00
23164;BME280;31429;42.674;23.350;2023-04-26T03:21:52;93751.13;;;8.49;100.00
23164;BME280;31429;42.674;23.350;2023-04-26T03:22:52;93745.84;;;8.54;100.00
23164;BME280;31429;42.674;23.350;2023-04-26T03:23:53;93749.84;;;8.59;100.00
23164;BME280;31429;42.674;23.350;2023-04-26T03:24:55;93749.75;;;8.61;100.00
23164;BME280;31429;42.674;23.350;2023-04-26T03:25:56;93750.63;;;8.60;100.00
23164;BME280;31429;42.674;23.350;2023-04-26T03:26:57;93745.34;;;8.64;100.00
23164;BME280;31429;42.674;23.350;2023-04-26T03:27:57;93742.06;;;8.62;100.00
23164;BME280;31429;42.674;23.350;2023-04-26T03:28:58;93745.25;;;8.66;100.00
23164;BME280;31429;42.674;23.350;2023-04-26T03:29:59;93752.16;;;8.64;100.00
23164;BME280;31429;42.674;23.350;2023-04-26T03:30:59;93756.56;;;8.60;100.00
23164;BME280;31429;42.674;23.350;2023-04-26T03:32:01;93753.97;;;8.43;100.00
23164;BME280;31429;42.674;23.350;2023-04-26T03:33:01;93755.28;;;8.33;100.00
23164;BME280;31429;42.674;23.350;2023-04-26T03:34:02;93752.16;;;8.27;100.00
23164;BME280;31429;42.674;23.350;2023-04-26T03:35:03;93755.81;;;8.21;100.00
23164;BME280;31429;42.674;23.350;2023-04-26T03:36:04;93754.78;;;8.25;100.00
23164;BME280;31429;42.674;23.350;2023-04-26T03:37:05;93750.47;;;8.27;100.00
23164;BME280;31429;42.674;23.350;2023-04-26T03:38:06;93754.69;;;8.28;100.00
23164;BME280;31429;42.674;23.350;2023-04-26T03:39:06;93753.75;;;8.29;100.00
23164;BME280;31429;42.674;23.350;2023-04-26T03:40:09;93753.63;;;8.32;100.00
23164;BME280;31429;42.674;23.350;2023-04-26T03:41:10;93755.44;;;8.30;100.00
23164;BME280;31429;42.674;23.350;2023-04-26T03:42:11;93750.38;;;8.29;100.00
23164;BME280;31429;42.674;23.350;2023-04-26T03:43:11;93754.91;;;8.22;100.00
23164;BME280;31429;42.674;23.350;2023-04-26T03:44:12;93758.09;;;8.27;100.00
23164;BME280;31429;42.674;23.350;2023-04-26T03:45:13;93756.47;;;8.45;100.00
23164;BME280;31429;42.674;23.350;2023-04-26T03:46:14;93760.94;;;8.40;100.00
23164;BME280;31429;42.674;23.350;2023-04-26T03:47:15;93761.50;;;8.26;100.00
23164;BME280;31429;42.674;23.350;2023-04-26T03:48:16;93763.38;;;8.23;100.00
23164;BME280;31429;42.674;23.350;2023-04-26T03:49:16;93763.66;;;8.17;100.00
23164;BME280;31429;42.674;23.350;2023-04-26T03:50:18;93761.28;;;8.12;100.00
23164;BME280;31429;42.674;23.350;2023-04-26T03:51:18;93769.56;;;8.17;100.00
23164;BME280;31429;42.674;23.350;2023-04-26T03:52:19;93767.41;;;8.28;100.00
23164;BME280;31429;42.674;23.350;2023-04-26T03:53:20;93769.47;;;8.39;100.00
23164;BME280;31429;42.674;23.350;2023-04-26T03:54:20;93765.72;;;8.46;100.00
23164;BME280;31429;42.674;23.350;2023-04-26T03:55:23;93763.88;;;8.49;100.00
23164;BME280;31429;42.674;23.350;2023-04-26T03:56:23;93761.59;;;8.43;100.00
23164;BME280;31429;42.674;23.350;2023-04-26T03:57:24;93770.28;;;8.39;100.00
23164;BME280;31429;42.674;23.350;2023-04-26T03:58:25;93773.94;;;8.34;100.00
23164;BME280;31429;42.674;23.350;2023-04-26T03:59:26;93768.34;;;8.44;100.00
23164;BME280;31429;42.674;23.350;2023-04-26T04:00:26;93763.38;;;8.60;100.00
23164;BME280;31429;42.674;23.350;2023-04-26T04:01:27;93771.09;;;8.58;100.00
23164;BME280;31429;42.674;23.350;2023-04-26T04:02:28;93775.78;;;8.49;100.00
23164;BME280;31429;42.674;23.350;2023-04-26T04:03:29;93766.28;;;8.52;100.00
23164;BME280;31429;42.674;23.350;2023-04-26T04:04:30;93769.03;;;8.66;100.00
23164;BME280;31429;42.674;23.350;2023-04-26T04:05:30;93771.84;;;8.60;100.00
23164;BME280;31429;42.674;23.350;2023-04-26T04:06:31;93772.22;;;8.53;100.00
23164;BME280;31429;42.674;23.350;2023-04-26T04:07:32;93771.59;;;8.48;100.00
23164;BME280;31429;42.674;23.350;2023-04-26T04:08:33;93770.41;;;8.55;100.00
23164;BME280;31429;42.674;23.350;2023-04-26T04:09:33;93771.72;;;8.63;100.00
23164;BME280;31429;42.674;23.350;2023-04-26T04:10:35;93771.84;;;8.79;100.00
23164;BME280;31429;42.674;23.350;2023-04-26T04:11:37;93770.63;;;8.86;100.00
23164;BME280;31429;42.674;23.350;2023-04-26T04:12:37;93773.50;;;8.97;100.00
23164;BME280;31429;42.674;23.350;2023-04-26T04:13:38;93783.28;;;9.06;100.00
23164;BME280;31429;42.674;23.350;2023-04-26T04:14:39;93786.88;;;9.02;100.00
23164;BME280;31429;42.674;23.350;2023-04-26T04:15:40;93790.22;;;9.03;100.00
23164;BME280;31429;42.674;23.350;2023-04-26T04:16:40;93783.72;;;9.14;100.00
23164;BME280;31429;42.674;23.350;2023-04-26T04:17:41;93788.69;;;9.17;100.00
23164;BME280;31429;42.674;23.350;2023-04-26T04:18:42;93788.50;;;9.03;100.00
23164;BME280;31429;42.674;23.350;2023-04-26T04:19:42;93787.31;;;8.93;100.00
23164;BME280;31429;42.674;23.350;2023-04-26T04:20:44;93789.44;;;9.02;100.00
23164;BME280;31429;42.674;23.350;2023-04-26T04:21:45;93789.44;;;9.19;100.00
23164;BME280;31429;42.674;23.350;2023-04-26T04:22:46;93787.06;;;9.16;100.00
23164;BME280;31429;42.674;23.350;2023-04-26T04:23:47;93791.38;;;9.14;100.00
23164;BME280;31429;42.674;23.350;2023-04-26T04:24:47;93792.94;;;9.17;100.00
23164;BME280;31429;42.674;23.350;2023-04-26T04:25:49;93795.31;;;9.21;100.00
23164;BME280;31429;42.674;23.350;2023-04-26T04:26:50;93805.97;;;9.30;100.00
23164;BME280;31429;42.674;23.350;2023-04-26T04:27:51;93797.19;;;9.35;100.00
23164;BME280;31429;42.674;23.350;2023-04-26T04:28:52;93794.25;;;9.25;100.00
23164;BME280;31429;42.674;23.350;2023-04-26T04:29:54;93792.16;;;9.16;100.00
23164;BME280;31429;42.674;23.350;2023-04-26T04:30:56;93793.50;;;9.23;100.00
23164;BME280;31429;42.674;23.350;2023-04-26T04:31:57;93792.09;;;9.35;100.00
23164;BME280;31429;42.674;23.350;2023-04-26T04:32:58;93783.16;;;9.44;100.00
23164;BME280;31429;42.674;23.350;2023-04-26T04:33:59;93793.13;;;9.48;100.00
23164;BME280;31429;42.674;23.350;2023-04-26T04:35:00;93798.69;;;9.39;100.00
23164;BME280;31429;42.674;23.350;2023-04-26T04:36:00;93800.31;;;9.23;100.00
23164;BME280;31429;42.674;23.350;2023-04-26T04:37:01;93807.00;;;9.25;100.00
23164;BME280;31429;42.674;23.350;2023-04-26T04:38:03;93802.19;;;9.37;100.00
23164;BME280;31429;42.674;23.350;2023-04-26T04:39:04;93809.50;;;9.44;100.00
23164;BME280;31429;42.674;23.350;2023-04-26T04:40:09;93801.69;;;9.47;100.00
23164;BME280;31429;42.674;23.350;2023-04-26T04:41:11;93798.31;;;9.47;100.00
23164;BME280;31429;42.674;23.350;2023-04-26T04:42:12;93796.66;;;9.46;100.00
23164;BME280;31429;42.674;23.350;2023-04-26T04:43:13;93797.25;;;9.51;100.00
23164;BME280;31429;42.674;23.350;2023-04-26T04:44:14;93802.88;;;9.57;100.00
23164;BME280;31429;42.674;23.350;2023-04-26T04:45:15;93806.56;;;9.52;100.00
23164;BME280;31429;42.674;23.350;2023-04-26T04:46:16;93811.38;;;9.58;100.00
23164;BME280;31429;42.674;23.350;2023-04-26T04:47:17;93800.88;;;9.64;100.00
23164;BME280;31429;42.674;23.350;2023-04-26T04:48:18;93808.66;;;9.61;100.00
23164;BME280;31429;42.674;23.350;2023-04-26T04:49:20;93797.78;;;9.57;100.00
23164;BME280;31429;42.674;23.350;2023-04-26T04:50:21;93799.22;;;9.63;100.00
23164;BME280;31429;42.674;23.350;2023-04-26T04:51:22;93803.63;;;9.59;100.00
23164;BME280;31429;42.674;23.350;2023-04-26T04:52:23;93809.50;;;9.61;100.00
23164;BME280;31429;42.674;23.350;2023-04-26T04:53:24;93816.31;;;9.61;100.00
23164;BME280;31429;42.674;23.350;2023-04-26T04:54:24;93819.41;;;9.50;100.00
23164;BME280;31429;42.674;23.350;2023-04-26T04:55:25;93819.91;;;9.57;100.00
23164;BME280;31429;42.674;23.350;2023-04-26T04:56:27;93815.09;;;9.68;100.00
23164;BME280;31429;42.674;23.350;2023-04-26T04:57:28;93811.38;;;9.75;100.00
23164;BME280;31429;42.674;23.350;2023-04-26T04:58:29;93809.34;;;9.64;100.00
23164;BME280;31429;42.674;23.350;2023-04-26T04:59:29;93808.22;;;9.53;100.00
23164;BME280;31429;42.674;23.350;2023-04-26T05:00:30;93812.13;;;9.60;100.00
23164;BME280;31429;42.674;23.350;2023-04-26T05:01:31;93810.25;;;9.63;100.00
23164;BME280;31429;42.674;23.350;2023-04-26T05:02:32;93808.97;;;9.72;100.00
23164;BME280;31429;42.674;23.350;2023-04-26T05:03:33;93812.56;;;9.68;100.00
23164;BME280;31429;42.674;23.350;2023-04-26T05:04:34;93826.75;;;9.73;100.00
23164;BME280;31429;42.674;23.350;2023-04-26T05:05:34;93824.72;;;9.80;100.00
23164;BME280;31429;42.674;23.350;2023-04-26T05:06:35;93815.44;;;9.79;100.00
23164;BME280;31429;42.674;23.350;2023-04-26T05:07:36;93814.91;;;9.72;100.00
23164;BME280;31429;42.674;23.350;2023-04-26T05:08:37;93805.38;;;9.76;100.00
23164;BME280;31429;42.674;23.350;2023-04-26T05:09:37;93813.03;;;9.76;100.00
23164;BME280;31429;42.674;23.350;2023-04-26T05:10:38;93808.38;;;9.84;100.00
23164;BME280;31429;42.674;23.350;2023-04-26T05:11:40;93817.34;;;9.91;100.00
23164;BME280;31429;42.674;23.350;2023-04-26T05:12:41;93817.78;;;9.99;100.00
23164;BME280;31429;42.674;23.350;2023-04-26T05:13:41;93813.47;;;9.84;100.00
23164;BME280;31429;42.674;23.350;2023-04-26T05:14:42;93816.84;;;9.85;100.00
23164;BME280;31429;42.674;23.350;2023-04-26T05:15:42;93816.47;;;9.92;100.00
23164;BME280;31429;42.674;23.350;2023-04-26T05:16:43;93816.84;;;10.02;100.00
23164;BME280;31429;42.674;23.350;2023-04-26T05:17:44;93814.59;;;10.13;100.00
23164;BME280;31429;42.674;23.350;2023-04-26T05:18:44;93816.59;;;10.06;100.00